createdAt,value
2019-01-17T00:40:06.598Z,99.90
2019-01-17T00:42:50.442Z,99.90
2019-01-17T00:45:39.636Z,99.90
2019-01-17T00:48:28.834Z,99.90
2019-01-17T00:51:11.486Z,99.90
2019-01-17T00:54:02.122Z,99.90
2019-01-17T00:56:47.596Z,99.90
2019-01-17T00:59:37.034Z,99.90
2019-01-17T01:02:26.345Z,99.90
2019-01-17T01:05:21.746Z,99.90
2019-01-17T01:08:29.232Z,99.90
2019-01-17T01:11:18.473Z,99.90
2019-01-17T01:14:06.629Z,99.90
2019-01-17T01:17:07.997Z,99.90
2019-01-17T01:19:57.223Z,99.90
2019-01-17T01:22:45.068Z,99.90
2019-01-17T01:25:42.331Z,99.90
2019-01-17T01:28:46.891Z,99.90
2019-01-17T01:31:42.732Z,99.90
2019-01-17T01:34:25.210Z,99.90
2019-01-17T01:37:16.154Z,99.90
2019-01-17T01:40:11.307Z,99.90
2019-01-17T01:43:01.536Z,99.90
2019-01-17T01:45:49.559Z,99.90
2019-01-17T01:48:27.600Z,99.90
2019-01-17T01:51:19.787Z,99.90
2019-01-17T01:53:49.975Z,99.90
2019-01-17T01:56:20.538Z,99.90
2019-01-17T01:58:50.751Z,99.90
2019-01-17T02:01:21.302Z,99.90
2019-01-17T02:03:51.818Z,99.90
2019-01-17T02:06:22.419Z,99.90
2019-01-17T02:08:52.586Z,99.90
2019-01-17T02:11:23.508Z,99.90
2019-01-17T02:13:53.956Z,99.90
2019-01-17T02:16:24.143Z,99.90
2019-01-17T02:18:54.894Z,99.90
2019-01-17T02:21:25.331Z,99.90
2019-01-17T02:23:55.955Z,99.90
2019-01-17T02:26:26.139Z,99.90
2019-01-17T02:28:56.773Z,99.90
2019-01-17T02:31:26.947Z,99.90
2019-01-17T02:33:57.560Z,99.90
2019-01-17T02:36:27.822Z,99.90
2019-01-17T02:38:58.098Z,99.90
2019-01-17T02:41:28.432Z,99.90
2019-01-17T02:43:58.776Z,99.90
2019-01-17T02:46:29.020Z,99.90
2019-01-17T02:48:59.612Z,99.90
2019-01-17T02:51:30.260Z,99.90
2019-01-17T02:54:00.817Z,99.90
2019-01-17T02:56:31.012Z,99.90
2019-01-17T02:59:01.209Z,99.90
2019-01-17T03:01:31.824Z,99.90
2019-01-17T03:04:02.371Z,99.90
2019-01-17T03:06:32.639Z,99.90
2019-01-17T03:09:03.969Z,99.90
2019-01-17T03:11:36.132Z,99.90
2019-01-17T03:14:07.063Z,99.90
2019-01-17T03:16:37.219Z,99.90
2019-01-17T03:19:07.560Z,99.90
2019-01-17T03:21:37.736Z,99.90
2019-01-17T03:24:07.954Z,99.90
2019-01-17T03:26:38.235Z,99.90
2019-01-17T03:29:08.911Z,99.90
2019-01-17T03:31:39.160Z,99.90
2019-01-17T03:34:09.448Z,99.90
2019-01-17T03:36:39.644Z,99.90
2019-01-17T03:39:09.923Z,99.90
2019-01-17T03:41:40.060Z,99.90
2019-01-17T03:44:10.690Z,99.90
2019-01-17T03:46:40.959Z,99.90
2019-01-17T03:49:11.172Z,99.90
2019-01-17T03:51:41.371Z,99.90
2019-01-17T03:54:11.586Z,99.90
2019-01-17T03:56:41.773Z,99.90
2019-01-17T03:59:11.991Z,99.90
2019-01-17T04:01:42.217Z,99.90
2019-01-17T04:04:12.491Z,99.90
2019-01-17T04:06:42.677Z,99.90
2019-01-17T04:09:12.896Z,99.90
2019-01-17T04:11:43.432Z,99.90
2019-01-17T04:14:13.657Z,99.90
2019-01-17T04:16:43.895Z,99.90
2019-01-17T04:19:14.493Z,99.90
2019-01-17T04:21:44.689Z,99.90
2019-01-17T04:24:15.257Z,99.90
2019-01-17T04:26:45.871Z,99.90
2019-01-17T04:29:16.260Z,99.90
2019-01-17T04:31:46.512Z,99.90
2019-01-17T04:34:16.697Z,99.90
2019-01-17T04:36:46.946Z,99.90
2019-01-17T04:39:17.371Z,99.90
2019-01-17T04:41:47.639Z,99.90
2019-01-17T04:44:18.182Z,99.90
2019-01-17T04:46:48.491Z,99.90
2019-01-17T04:49:18.691Z,99.90
2019-01-17T04:51:48.861Z,99.90
2019-01-17T04:54:19.160Z,99.90
2019-01-17T04:56:49.352Z,99.90
2019-01-17T04:59:20.049Z,99.90
2019-01-17T05:01:50.247Z,99.90
2019-01-17T05:04:20.656Z,99.90
2019-01-17T05:06:50.856Z,99.90
2019-01-17T05:09:21.283Z,99.90
2019-01-17T05:11:51.694Z,99.90
2019-01-17T05:14:21.937Z,99.90
2019-01-17T05:16:52.470Z,99.90
2019-01-17T05:19:22.683Z,99.90
2019-01-17T05:21:52.946Z,99.90
2019-01-17T05:24:23.161Z,99.90
2019-01-17T05:26:53.430Z,99.90
2019-01-17T05:29:23.706Z,99.90
2019-01-17T05:31:53.886Z,99.90
2019-01-17T05:34:24.114Z,99.90
2019-01-17T05:36:54.312Z,99.90
2019-01-17T05:39:24.892Z,99.90
2019-01-17T05:41:55.159Z,99.90
2019-01-17T05:44:26.306Z,99.90
2019-01-17T05:46:56.999Z,99.90
2019-01-17T05:49:27.212Z,99.90
2019-01-17T05:51:57.757Z,99.90
2019-01-17T05:54:27.972Z,99.90
2019-01-17T05:56:58.142Z,99.90
2019-01-17T05:59:29.159Z,99.90
2019-01-17T06:01:59.442Z,99.90
2019-01-17T06:04:29.670Z,99.90
2019-01-17T06:06:59.847Z,99.90
2019-01-17T06:09:30.063Z,99.90
2019-01-17T06:12:00.233Z,99.90
2019-01-17T06:14:30.431Z,99.90
2019-01-17T06:17:00.610Z,99.90
2019-01-17T06:19:30.859Z,99.90
2019-01-17T06:22:01.035Z,99.90
2019-01-17T06:24:31.227Z,99.90
2019-01-17T06:27:01.795Z,99.90
2019-01-17T06:29:31.991Z,99.90
2019-01-17T06:32:02.189Z,99.90
2019-01-17T06:34:32.766Z,99.90
2019-01-17T06:37:02.963Z,99.90
2019-01-17T06:39:33.275Z,99.90
2019-01-17T06:42:03.608Z,99.90
2019-01-17T06:44:33.794Z,99.90
2019-01-17T06:47:04.032Z,99.90
2019-01-17T06:49:34.255Z,99.90
2019-01-17T06:52:04.429Z,99.90
2019-01-17T06:54:34.682Z,99.90
2019-01-17T06:57:05.222Z,99.90
2019-01-17T06:59:35.428Z,99.90
2019-01-17T07:02:05.891Z,99.90
2019-01-17T07:04:36.681Z,99.90
2019-01-17T07:07:06.848Z,99.90
2019-01-17T07:09:37.055Z,99.90
2019-01-17T07:12:08.246Z,99.90
2019-01-17T07:14:38.884Z,99.90
2019-01-17T07:17:09.410Z,99.90
2019-01-17T07:19:39.600Z,99.90
2019-01-17T07:22:10.154Z,99.90
2019-01-17T07:24:40.371Z,99.90
2019-01-17T07:27:10.544Z,99.90
2019-01-17T07:29:41.104Z,99.90
2019-01-17T07:32:11.297Z,99.90
2019-01-17T07:34:41.496Z,99.90
2019-01-17T07:37:11.674Z,99.90
2019-01-17T07:39:41.824Z,99.90
2019-01-17T07:42:12.048Z,99.90
2019-01-17T07:44:43.206Z,99.90
2019-01-17T07:47:13.406Z,99.90
2019-01-17T07:49:43.561Z,99.90
2019-01-17T07:52:14.170Z,99.90
2019-01-17T07:54:44.747Z,99.90
2019-01-17T07:57:14.856Z,99.90
2019-01-17T07:59:45.081Z,99.90
2019-01-17T08:02:15.249Z,99.90
2019-01-17T08:04:45.885Z,99.90
2019-01-17T08:07:16.014Z,99.90
2019-01-17T08:09:46.273Z,99.90
2019-01-17T08:12:16.440Z,99.90
2019-01-17T08:14:47.401Z,99.90
2019-01-17T08:17:17.579Z,99.90
2019-01-17T08:19:47.763Z,99.90
2019-01-17T08:22:17.919Z,99.90
2019-01-17T08:24:48.099Z,99.90
2019-01-17T08:27:18.326Z,99.90
2019-01-17T08:29:48.537Z,99.90
2019-01-17T08:32:18.633Z,99.90
2019-01-17T08:34:49.171Z,99.90
2019-01-17T08:37:19.363Z,99.90
2019-01-17T08:39:49.547Z,99.90
2019-01-17T08:42:19.777Z,99.90
2019-01-17T08:44:50.425Z,99.90
2019-01-17T08:47:20.631Z,99.90
2019-01-17T08:49:50.745Z,99.90
2019-01-17T08:52:20.923Z,99.90
2019-01-17T08:54:51.145Z,99.90
2019-01-17T08:57:21.583Z,99.90
2019-01-17T08:59:51.828Z,99.90
2019-01-17T09:02:21.993Z,99.90
2019-01-17T09:04:52.220Z,99.90
2019-01-17T09:07:22.424Z,99.90
2019-01-17T09:09:52.644Z,99.90
2019-01-17T09:12:24.163Z,99.90
2019-01-17T09:14:54.437Z,99.90
2019-01-17T09:17:24.698Z,99.90
2019-01-17T09:19:54.883Z,99.90
2019-01-17T09:22:25.053Z,99.90
2019-01-17T09:24:55.357Z,99.90
2019-01-17T09:27:25.620Z,99.90
2019-01-17T09:29:55.773Z,99.90
2019-01-17T09:32:26.378Z,99.90
2019-01-17T09:34:56.516Z,99.90
2019-01-17T09:37:26.627Z,99.90
2019-01-17T09:39:56.857Z,99.90
2019-01-17T09:42:27.040Z,99.90
2019-01-17T09:44:57.229Z,99.90
2019-01-17T09:47:27.796Z,99.90
2019-01-17T09:49:57.984Z,99.90
2019-01-17T09:52:28.460Z,99.90
2019-01-17T09:54:58.772Z,99.90
2019-01-17T09:57:29.236Z,99.90
2019-01-17T10:00:01.798Z,99.90
2019-01-17T10:02:31.898Z,99.90
2019-01-17T10:05:03.276Z,99.90
2019-01-17T10:07:33.464Z,99.90
2019-01-17T10:10:06.432Z,99.90
2019-01-17T10:12:36.651Z,99.90
2019-01-17T10:15:11.868Z,99.90
2019-01-17T10:18:05.418Z,99.90
2019-01-17T10:21:18.717Z,99.90
2019-01-17T10:24:22.308Z,99.90
2019-01-17T10:27:28.726Z,99.90
2019-01-17T10:30:36.155Z,99.90
2019-01-17T10:33:17.759Z,99.90
2019-01-17T10:36:28.710Z,99.90
2019-01-17T10:39:29.303Z,99.90
2019-01-17T10:42:26.875Z,99.90
2019-01-17T10:45:45.060Z,99.90
2019-01-17T10:48:58.187Z,99.90
2019-01-17T10:52:07.203Z,99.90
2019-01-17T10:55:26.139Z,99.90
2019-01-17T10:58:27.945Z,99.90
2019-01-17T11:01:31.686Z,99.90
2019-01-17T11:04:30.365Z,99.90
2019-01-17T11:07:25.810Z,99.90
2019-01-17T11:10:49.248Z,99.90
2019-01-17T11:13:42.036Z,99.90
2019-01-17T11:17:05.530Z,99.90
2019-01-17T11:20:17.033Z,99.90
2019-01-17T11:23:32.565Z,99.90
2019-01-17T11:26:34.316Z,99.90
2019-01-17T11:29:37.501Z,99.90
2019-01-17T11:32:51.533Z,99.90
2019-01-17T11:35:51.709Z,99.90
2019-01-17T11:39:01.790Z,99.90
2019-01-17T11:42:26.674Z,99.90
2019-01-17T11:45:21.725Z,99.90
2019-01-17T11:48:42.138Z,99.90
2019-01-17T11:51:32.083Z,99.90
2019-01-17T11:54:41.915Z,99.90
2019-01-17T11:57:32.277Z,99.90
2019-01-17T12:00:32.845Z,99.90
2019-01-17T12:04:05.241Z,99.90
2019-01-17T12:06:35.551Z,99.90
2019-01-17T12:09:07.571Z,99.90
2019-01-17T12:11:37.853Z,99.90
2019-01-17T12:14:08.052Z,99.90
2019-01-17T12:16:38.342Z,99.90
2019-01-17T12:19:08.510Z,99.90
2019-01-17T12:21:39.022Z,99.90
2019-01-17T12:24:09.394Z,99.90
2019-01-17T12:26:39.591Z,99.90
2019-01-17T12:29:10.132Z,99.90
2019-01-17T12:31:42.030Z,99.90
2019-01-17T12:34:12.236Z,99.90
2019-01-17T12:36:42.384Z,99.90
2019-01-17T12:39:13.762Z,99.90
2019-01-17T12:41:43.972Z,99.90
2019-01-17T12:44:14.240Z,99.90
2019-01-17T12:46:44.423Z,99.90
2019-01-17T12:49:15.019Z,99.90
2019-01-17T12:51:45.213Z,99.90
2019-01-17T12:54:15.437Z,99.90
2019-01-17T12:56:45.970Z,99.90
2019-01-17T12:59:16.338Z,99.90
2019-01-17T13:01:46.503Z,99.90
2019-01-17T13:04:17.135Z,99.90
2019-01-17T13:06:47.602Z,99.90
2019-01-17T13:09:19.398Z,99.90
2019-01-17T13:11:50.001Z,99.90
2019-01-17T13:14:21.214Z,99.90
2019-01-17T13:16:51.482Z,99.90
2019-01-17T13:19:21.751Z,99.90
2019-01-17T13:21:52.298Z,99.90
2019-01-17T13:24:22.589Z,99.90
2019-01-17T13:26:52.859Z,99.90
2019-01-17T13:29:23.515Z,99.90
2019-01-17T13:31:53.727Z,99.90
2019-01-17T13:34:23.915Z,99.90
2019-01-17T13:36:54.121Z,99.90
2019-01-17T13:39:24.778Z,99.90
2019-01-17T13:41:55.074Z,99.90
2019-01-17T13:44:25.349Z,99.90
2019-01-17T13:46:55.580Z,99.90
2019-01-17T13:49:25.846Z,99.90
2019-01-17T13:51:56.065Z,99.90
2019-01-17T13:54:26.390Z,99.90
2019-01-17T13:56:56.783Z,99.90
2019-01-17T13:59:26.976Z,99.90
2019-01-17T14:01:57.060Z,99.90
2019-01-17T14:04:27.209Z,99.90
2019-01-17T14:06:57.396Z,99.70
2019-01-17T14:09:27.987Z,98.70
2019-01-17T14:11:58.193Z,97.90
2019-01-17T14:14:28.700Z,97.80
2019-01-17T14:16:58.903Z,96.80
2019-01-17T14:19:29.164Z,96.50
2019-01-17T14:21:59.402Z,96.70
2019-01-17T14:24:31.043Z,97.70
2019-01-17T14:27:01.570Z,97.10
2019-01-17T14:29:32.162Z,97.80
2019-01-17T14:32:02.440Z,97.40
2019-01-17T14:34:32.688Z,98.00
2019-01-17T14:37:02.885Z,97.80
2019-01-17T14:39:33.094Z,99.10
2019-01-17T14:42:03.416Z,99.10
2019-01-17T14:44:33.687Z,98.40
2019-01-17T14:47:04.227Z,97.40
2019-01-17T14:49:34.589Z,97.10
2019-01-17T14:52:04.804Z,96.40
2019-01-17T14:54:35.101Z,97.10
2019-01-17T14:57:05.882Z,97.40
2019-01-17T14:59:36.110Z,98.30
2019-01-17T15:02:06.737Z,98.60
2019-01-17T15:04:36.949Z,98.30
2019-01-17T15:07:07.139Z,98.50
2019-01-17T15:09:37.845Z,98.90
2019-01-17T15:12:08.037Z,99.90
2019-01-17T15:14:38.592Z,99.90
2019-01-17T15:17:08.777Z,99.90
2019-01-17T15:19:38.975Z,99.90
2019-01-17T15:22:09.479Z,99.90
2019-01-17T15:24:39.809Z,99.80
2019-01-17T15:27:09.980Z,99.20
2019-01-17T15:29:40.234Z,99.30
2019-01-17T15:32:10.483Z,99.30
2019-01-17T15:34:41.387Z,99.00
2019-01-17T15:37:11.651Z,99.10
2019-01-17T15:39:42.245Z,98.60
2019-01-17T15:42:12.759Z,98.30
2019-01-17T15:44:43.096Z,98.60
2019-01-17T15:47:13.765Z,97.60
2019-01-17T15:49:44.073Z,98.00
2019-01-17T15:52:14.418Z,98.70
2019-01-17T15:54:44.692Z,99.10
2019-01-17T15:57:14.999Z,99.50
2019-01-17T15:59:45.245Z,98.90
2019-01-17T16:02:15.818Z,99.10
2019-01-17T16:04:46.042Z,99.60
2019-01-17T16:07:16.331Z,98.80
2019-01-17T16:09:46.600Z,99.80
2019-01-17T16:12:16.855Z,99.90
2019-01-17T16:14:47.172Z,99.90
2019-01-17T16:17:17.373Z,99.90
2019-01-17T16:19:47.593Z,99.90
2019-01-17T16:22:18.508Z,99.90
2019-01-17T16:24:49.126Z,99.90
2019-01-17T16:27:19.773Z,99.90
2019-01-17T16:29:50.245Z,99.90
2019-01-17T16:32:21.561Z,99.90
2019-01-17T16:34:51.782Z,99.90
2019-01-17T16:37:21.994Z,99.90
2019-01-17T16:39:52.524Z,99.90
2019-01-17T16:42:22.684Z,99.90
2019-01-17T16:44:52.942Z,99.90
2019-01-17T16:47:23.131Z,99.90
2019-01-17T16:49:53.770Z,99.90
2019-01-17T16:52:24.067Z,99.90
2019-01-17T16:54:54.608Z,99.90
2019-01-17T16:57:24.837Z,99.90
2019-01-17T16:59:55.420Z,99.90
2019-01-17T17:02:25.682Z,99.90
2019-01-17T17:04:55.892Z,99.90
2019-01-17T17:07:26.074Z,99.90
2019-01-17T17:09:56.314Z,99.90
2019-01-17T17:12:27.181Z,99.90
2019-01-17T17:14:57.430Z,99.90
2019-01-17T17:17:27.660Z,99.90
2019-01-17T17:19:57.959Z,99.90
2019-01-17T17:22:28.234Z,99.90
2019-01-17T17:24:58.352Z,99.90
2019-01-17T17:27:28.526Z,99.90
2019-01-17T17:29:58.789Z,99.90
2019-01-17T17:32:30.212Z,99.90
2019-01-17T17:35:01.071Z,99.90
2019-01-17T17:37:31.657Z,99.90
2019-01-17T17:40:02.506Z,99.90
2019-01-17T17:42:32.687Z,99.90
2019-01-17T17:45:02.894Z,99.90
2019-01-17T17:47:33.351Z,99.90
2019-01-17T17:50:03.736Z,99.90
2019-01-17T17:52:33.925Z,99.90
2019-01-17T17:55:04.966Z,99.90
2019-01-17T17:57:36.151Z,99.90
2019-01-17T18:00:09.991Z,99.90
2019-01-17T18:02:41.061Z,99.90
2019-01-17T18:05:12.418Z,99.90
2019-01-17T18:07:42.695Z,99.90
2019-01-17T18:10:14.687Z,99.90
2019-01-17T18:12:45.660Z,99.90
2019-01-17T18:15:16.348Z,99.90
2019-01-17T18:17:46.542Z,99.90
2019-01-17T18:20:17.250Z,99.90
2019-01-17T18:22:47.539Z,99.90
2019-01-17T18:25:17.795Z,99.90
2019-01-17T18:27:48.080Z,99.90
2019-01-17T18:30:20.724Z,99.90
2019-01-17T18:32:50.962Z,99.90
2019-01-17T18:35:21.272Z,99.90
2019-01-17T18:37:51.522Z,99.90
2019-01-17T18:40:22.389Z,99.90
2019-01-17T18:42:52.799Z,99.90
2019-01-17T18:45:23.250Z,99.90
2019-01-17T18:47:53.559Z,99.90
2019-01-17T18:50:26.457Z,99.90
2019-01-17T18:52:56.937Z,99.90
2019-01-17T18:55:27.163Z,99.90
2019-01-17T18:57:57.638Z,99.90
2019-01-17T19:00:29.463Z,99.90
2019-01-17T19:03:00.554Z,99.90
2019-01-17T19:05:31.077Z,99.90
2019-01-17T19:08:01.590Z,99.90
2019-01-17T19:10:32.392Z,99.90
2019-01-17T19:13:02.747Z,99.90
2019-01-17T19:15:34.069Z,99.90
2019-01-17T19:18:05.019Z,99.90
2019-01-17T19:20:35.431Z,99.90
2019-01-17T19:23:05.728Z,99.90
2019-01-17T19:25:35.904Z,99.90
2019-01-17T19:28:06.164Z,99.90
2019-01-17T19:30:36.405Z,99.90
2019-01-17T19:33:07.555Z,99.90
2019-01-17T19:35:37.797Z,99.90
2019-01-17T19:38:08.296Z,99.90
2019-01-17T19:40:38.634Z,99.90
2019-01-17T19:43:09.054Z,99.90
2019-01-17T19:45:39.385Z,99.90
2019-01-17T19:48:09.984Z,99.90
2019-01-17T19:50:40.334Z,99.90
2019-01-17T19:53:11.097Z,99.90
2019-01-17T19:55:41.620Z,99.90
2019-01-17T19:58:11.830Z,99.90
2019-01-17T20:00:42.151Z,99.90
2019-01-17T20:03:12.794Z,99.90
2019-01-17T20:05:43.210Z,99.90
2019-01-17T20:08:13.649Z,99.90
2019-01-17T20:10:43.941Z,99.90
2019-01-17T20:13:14.232Z,99.90
2019-01-17T20:15:44.373Z,99.90
2019-01-17T20:18:15.213Z,99.90
2019-01-17T20:20:45.530Z,99.90
2019-01-17T20:23:15.723Z,99.90
2019-01-17T20:25:46.053Z,99.90
2019-01-17T20:28:16.334Z,99.90
2019-01-17T20:30:46.647Z,99.90
2019-01-17T20:33:16.942Z,99.90
2019-01-17T20:35:47.518Z,99.90
2019-01-17T20:38:17.775Z,99.90
2019-01-17T20:40:48.007Z,99.90
2019-01-17T20:43:18.191Z,99.90
2019-01-17T20:45:48.529Z,99.90
2019-01-17T20:48:18.714Z,99.90
2019-01-17T20:50:49.000Z,99.90
2019-01-17T20:53:19.289Z,99.90
2019-01-17T20:55:49.689Z,99.90
2019-01-17T20:58:20.679Z,99.90
2019-01-17T21:01:17.775Z,99.90
2019-01-17T21:03:48.115Z,99.90
2019-01-17T21:06:18.404Z,99.90
2019-01-17T21:08:48.738Z,99.90
2019-01-17T21:11:18.932Z,99.90
2019-01-17T21:13:49.151Z,99.90
2019-01-17T21:16:19.427Z,99.90
2019-01-17T21:18:49.688Z,99.90
2019-01-17T21:21:20.218Z,99.90
2019-01-17T21:23:50.406Z,99.90
2019-01-17T21:26:21.359Z,99.90
2019-01-17T21:28:51.540Z,99.90
2019-01-17T21:31:21.805Z,99.90
2019-01-17T21:33:52.062Z,99.90
2019-01-17T21:36:22.288Z,99.90
2019-01-17T21:38:52.507Z,99.90
2019-01-17T21:41:22.824Z,99.90
2019-01-17T21:43:53.080Z,99.90
2019-01-17T21:46:23.400Z,99.90
2019-01-17T21:48:53.667Z,99.90
2019-01-17T21:51:23.967Z,99.90
2019-01-17T21:53:54.210Z,99.90
2019-01-17T21:56:24.808Z,99.90
2019-01-17T21:58:55.997Z,99.90
2019-01-17T22:01:26.442Z,99.90
2019-01-17T22:03:56.653Z,99.90
2019-01-17T22:06:26.757Z,99.90
2019-01-17T22:08:57.042Z,99.90
2019-01-17T22:11:27.274Z,99.90
2019-01-17T22:13:57.490Z,99.90
2019-01-17T22:16:27.745Z,99.90
2019-01-17T22:18:58.266Z,99.90
2019-01-17T22:21:28.455Z,99.90
2019-01-17T22:23:58.689Z,99.90
2019-01-17T22:26:28.929Z,99.90
2019-01-17T22:29:02.439Z,99.90
2019-01-17T22:31:30.989Z,99.90
2019-01-17T22:34:01.573Z,99.90
2019-01-17T22:36:31.869Z,99.90
2019-01-17T22:39:02.150Z,99.90
2019-01-17T22:41:34.071Z,99.90
2019-01-17T22:44:05.627Z,99.90
2019-01-17T22:46:35.891Z,99.90
2019-01-17T22:49:06.450Z,99.90
2019-01-17T22:51:38.092Z,99.90
2019-01-17T22:54:08.377Z,99.90
2019-01-17T22:56:39.294Z,99.90
2019-01-17T22:59:09.531Z,99.90
2019-01-17T23:01:40.258Z,99.90
2019-01-17T23:04:10.397Z,99.90
2019-01-17T23:06:40.687Z,99.90
2019-01-17T23:09:10.989Z,99.90
2019-01-17T23:11:41.505Z,99.90
2019-01-17T23:14:11.685Z,99.90
2019-01-17T23:16:42.967Z,99.90
2019-01-17T23:19:13.213Z,99.90
2019-01-17T23:21:43.473Z,99.90
2019-01-17T23:24:13.671Z,99.90
2019-01-17T23:26:43.941Z,99.90
2019-01-17T23:29:16.077Z,99.90
2019-01-17T23:31:46.125Z,99.90
2019-01-17T23:34:16.299Z,99.90
2019-01-17T23:36:48.882Z,99.90
2019-01-17T23:39:19.124Z,99.90
2019-01-17T23:41:49.381Z,99.90
2019-01-17T23:44:19.670Z,99.90
2019-01-17T23:46:49.975Z,99.90
2019-01-17T23:49:20.069Z,99.90
2019-01-17T23:51:50.322Z,99.90
2019-01-17T23:54:20.909Z,99.90
2019-01-17T23:56:52.301Z,99.90
2019-01-17T23:59:22.688Z,99.90
